createdAt,value
2023-01-29T00:01:36.200Z,95097.69
2023-01-29T00:04:03.183Z,95096.41
2023-01-29T00:06:29.973Z,95087.00
2023-01-29T00:08:57.220Z,95116.56
2023-01-29T00:11:25.640Z,95119.22
2023-01-29T00:13:53.464Z,95122.41
2023-01-29T00:16:20.985Z,95108.16
2023-01-29T00:18:47.623Z,95109.25
2023-01-29T00:21:17.519Z,95102.38
2023-01-29T00:23:44.259Z,95110.59
2023-01-29T00:26:11.691Z,95097.28
2023-01-29T00:28:43.192Z,95112.09
2023-01-29T00:31:18.308Z,95109.88
2023-01-29T00:33:45.412Z,95111.72
2023-01-29T00:36:14.063Z,95118.09
2023-01-29T00:38:40.790Z,95120.50
2023-01-29T00:41:32.149Z,95109.47
2023-01-29T00:44:18.367Z,95091.13
2023-01-29T00:46:45.823Z,95092.16
2023-01-29T00:49:13.187Z,95089.75
2023-01-29T00:51:40.375Z,95073.06
2023-01-29T00:54:07.504Z,95089.19
2023-01-29T00:56:36.687Z,95091.25
2023-01-29T00:59:04.622Z,95108.19
2023-01-29T01:01:50.208Z,95093.03
2023-01-29T01:04:17.159Z,95104.25
2023-01-29T01:06:43.858Z,95094.28
2023-01-29T01:09:29.744Z,95095.31
2023-01-29T01:11:56.407Z,95096.53
2023-01-29T01:14:23.133Z,95101.16
2023-01-29T01:16:50.079Z,95095.59
2023-01-29T01:19:16.911Z,95093.75
2023-01-29T01:21:45.540Z,95099.81
2023-01-29T01:24:13.081Z,95092.97
2023-01-29T01:26:39.941Z,95096.16
2023-01-29T01:29:06.698Z,95089.16
2023-01-29T01:31:33.512Z,95078.19
2023-01-29T01:34:00.307Z,95085.34
2023-01-29T01:36:27.091Z,95083.31
2023-01-29T01:38:54.920Z,95085.16
2023-01-29T01:41:23.854Z,95084.34
2023-01-29T01:43:55.573Z,95081.81
2023-01-29T01:46:23.169Z,95077.47
2023-01-29T01:48:59.202Z,95083.16
2023-01-29T01:51:30.840Z,95066.94
2023-01-29T01:54:03.978Z,95076.53
2023-01-29T01:56:38.396Z,95058.47
2023-01-29T01:59:09.937Z,95067.13
2023-01-29T02:01:38.343Z,95061.06
2023-01-29T02:04:27.629Z,95066.88
2023-01-29T02:07:14.369Z,95077.16
2023-01-29T02:10:13.987Z,95070.13
2023-01-29T02:12:41.048Z,95053.34
2023-01-29T02:15:08.472Z,95063.22
2023-01-29T02:17:35.374Z,95070.34
2023-01-29T02:20:26.754Z,95072.63
2023-01-29T02:22:55.272Z,95071.03
2023-01-29T02:25:38.570Z,95064.75
2023-01-29T02:28:25.808Z,95080.22
2023-01-29T02:31:04.690Z,95087.25
2023-01-29T02:33:41.923Z,95078.22
2023-01-29T02:36:14.425Z,95074.22
2023-01-29T02:38:40.985Z,95072.97
2023-01-29T02:41:22.427Z,95075.94
2023-01-29T02:44:06.695Z,95073.28
2023-01-29T02:46:36.867Z,95072.34
2023-01-29T02:49:32.180Z,95076.56
2023-01-29T02:52:07.581Z,95084.78
2023-01-29T02:55:10.569Z,95086.84
2023-01-29T02:57:43.120Z,95094.50
2023-01-29T03:00:17.153Z,95093.25
2023-01-29T03:02:53.604Z,95078.16
2023-01-29T03:05:31.102Z,95088.44
2023-01-29T03:08:04.076Z,95097.19
2023-01-29T03:10:44.659Z,95090.34
2023-01-29T03:13:30.146Z,95093.84
2023-01-29T03:16:07.565Z,95086.75
2023-01-29T03:18:46.363Z,95080.13
2023-01-29T03:21:50.068Z,95082.06
2023-01-29T03:24:51.640Z,95066.28
2023-01-29T03:27:41.696Z,95069.69
2023-01-29T03:30:31.304Z,95076.22
2023-01-29T03:33:11.477Z,95070.16
2023-01-29T03:35:48.426Z,95067.78
2023-01-29T03:38:16.016Z,95074.09
2023-01-29T03:40:49.216Z,95080.13
2023-01-29T03:43:26.347Z,95072.56
2023-01-29T03:46:29.909Z,95079.66
2023-01-29T03:49:04.207Z,95076.22
2023-01-29T03:51:30.842Z,95083.19
2023-01-29T03:54:08.814Z,95077.13
2023-01-29T03:56:51.691Z,95089.22
2023-01-29T03:59:48.683Z,95091.84
2023-01-29T04:03:10.899Z,95084.22
2023-01-29T04:05:51.259Z,95079.63
2023-01-29T04:08:30.526Z,95078.50
2023-01-29T04:11:07.022Z,95088.22
2023-01-29T04:13:36.539Z,95079.06
2023-01-29T04:16:07.790Z,95077.47
2023-01-29T04:18:57.914Z,95081.94
2023-01-29T04:21:33.032Z,95080.31
2023-01-29T04:24:00.172Z,95088.66
2023-01-29T04:26:37.655Z,95091.53
2023-01-29T04:29:23.482Z,95078.50
2023-01-29T04:32:05.679Z,95079.28
2023-01-29T04:34:40.718Z,95081.59
2023-01-29T04:37:23.245Z,95090.38
2023-01-29T04:40:12.188Z,95091.75
2023-01-29T04:43:05.183Z,95088.31
2023-01-29T04:45:53.092Z,95089.69
2023-01-29T04:48:27.091Z,95090.16
2023-01-29T04:51:05.427Z,95095.31
2023-01-29T04:53:57.188Z,95088.44
2023-01-29T04:56:33.896Z,95087.09
2023-01-29T04:59:13.244Z,95096.69
2023-01-29T05:01:40.086Z,95092.75
2023-01-29T05:04:13.416Z,95081.00
2023-01-29T05:06:41.585Z,95102.25
2023-01-29T05:09:09.696Z,95077.81
2023-01-29T05:11:37.642Z,95090.91
2023-01-29T05:14:08.977Z,95088.63
2023-01-29T05:16:42.682Z,95093.44
2023-01-29T05:19:15.106Z,95073.19
2023-01-29T05:21:43.408Z,95078.22
2023-01-29T05:24:14.760Z,95070.69
2023-01-29T05:27:02.085Z,95071.59
2023-01-29T05:29:29.251Z,95066.22
2023-01-29T05:31:56.065Z,95063.59
2023-01-29T05:34:22.928Z,95073.41
2023-01-29T05:36:49.992Z,95072.63
2023-01-29T05:39:16.985Z,95068.28
2023-01-29T05:41:44.690Z,95068.38
2023-01-29T05:44:11.498Z,95072.16
2023-01-29T05:46:38.798Z,95077.19
2023-01-29T05:49:05.960Z,95087.78
2023-01-29T05:51:32.760Z,95083.66
2023-01-29T05:53:59.387Z,95085.63
2023-01-29T05:56:26.040Z,95086.09
2023-01-29T05:58:52.717Z,95087.13
2023-01-29T06:01:22.172Z,95084.84
2023-01-29T06:03:49.312Z,95089.88
2023-01-29T06:06:17.046Z,95081.88
2023-01-29T06:08:44.086Z,95085.06
2023-01-29T06:11:13.025Z,95078.44
2023-01-29T06:13:40.645Z,95069.19
2023-01-29T06:16:08.608Z,95068.81
2023-01-29T06:18:39.253Z,95061.41
2023-01-29T06:21:07.944Z,95055.56
2023-01-29T06:23:34.723Z,95034.63
2023-01-29T06:26:02.927Z,95040.44
2023-01-29T06:28:29.684Z,95041.38
2023-01-29T06:31:19.971Z,95036.91
2023-01-29T06:33:48.500Z,95049.34
2023-01-29T06:36:15.179Z,95051.31
2023-01-29T06:38:41.828Z,95045.59
2023-01-29T06:41:11.206Z,95046.34
2023-01-29T06:43:39.126Z,95045.47
2023-01-29T06:46:08.130Z,95056.91
2023-01-29T06:48:35.326Z,95052.56
2023-01-29T06:51:06.998Z,95056.13
2023-01-29T06:53:34.377Z,95056.16
2023-01-29T06:56:01.106Z,95063.56
2023-01-29T06:58:27.794Z,95061.75
2023-01-29T07:00:54.453Z,95064.56
2023-01-29T07:03:21.403Z,95074.06
2023-01-29T07:05:52.952Z,95075.88
2023-01-29T07:08:22.638Z,95072.44
2023-01-29T07:10:50.226Z,95067.75
2023-01-29T07:13:17.075Z,95070.72
2023-01-29T07:15:44.561Z,95057.25
2023-01-29T07:18:14.013Z,95082.13
2023-01-29T07:20:42.018Z,95083.13
2023-01-29T07:23:13.290Z,95086.56
2023-01-29T07:25:41.002Z,95089.88
2023-01-29T07:28:07.866Z,95093.88
2023-01-29T07:30:34.962Z,95102.34
2023-01-29T07:33:09.020Z,95109.09
2023-01-29T07:35:40.355Z,95101.09
2023-01-29T07:38:08.545Z,95102.69
2023-01-29T07:40:35.990Z,95096.88
2023-01-29T07:43:05.152Z,95108.53
2023-01-29T07:45:38.199Z,95098.69
2023-01-29T07:48:06.787Z,95101.41
2023-01-29T07:50:35.005Z,95103.09
2023-01-29T07:53:02.610Z,95093.84
2023-01-29T07:55:29.974Z,95097.25
2023-01-29T07:58:01.882Z,95099.88
2023-01-29T08:00:29.921Z,95101.72
2023-01-29T08:03:04.869Z,95107.06
2023-01-29T08:05:31.681Z,95108.22
2023-01-29T08:08:06.515Z,95104.00
2023-01-29T08:10:35.202Z,95108.41
2023-01-29T08:13:03.377Z,95103.47
2023-01-29T08:15:30.887Z,95112.56
2023-01-29T08:17:58.496Z,95109.03
2023-01-29T08:20:25.833Z,95112.69
2023-01-29T08:23:03.718Z,95111.78
2023-01-29T08:25:30.648Z,95121.66
2023-01-29T08:27:58.590Z,95125.53
2023-01-29T08:30:30.396Z,95128.19
2023-01-29T08:32:57.505Z,95116.22
2023-01-29T08:35:24.856Z,95124.59
2023-01-29T08:37:55.946Z,95125.28
2023-01-29T08:40:22.797Z,95126.53
2023-01-29T08:42:49.517Z,95107.22
2023-01-29T08:45:16.278Z,95117.03
2023-01-29T08:47:47.927Z,95116.34
2023-01-29T08:50:15.758Z,95115.78
2023-01-29T08:52:43.231Z,95117.16
2023-01-29T08:55:10.666Z,95120.13
2023-01-29T08:57:38.629Z,95127.56
2023-01-29T09:00:06.682Z,95122.28
2023-01-29T09:02:33.498Z,95129.16
2023-01-29T09:05:00.190Z,95120.22
2023-01-29T09:07:26.903Z,95126.28
2023-01-29T09:09:53.551Z,95150.84
2023-01-29T09:12:20.175Z,95151.88
2023-01-29T09:14:46.823Z,95138.16
2023-01-29T09:17:13.486Z,95148.09
2023-01-29T09:19:40.157Z,95145.00
2023-01-29T09:22:06.905Z,95161.19
2023-01-29T09:24:35.046Z,95156.84
2023-01-29T09:27:02.221Z,95155.53
2023-01-29T09:29:28.859Z,95170.97
2023-01-29T09:31:55.517Z,95170.75
2023-01-29T09:34:22.266Z,95172.22
2023-01-29T09:36:48.949Z,95174.75
2023-01-29T09:39:15.618Z,95171.72
2023-01-29T09:42:02.671Z,95174.34
2023-01-29T09:44:54.461Z,95161.19
2023-01-29T09:47:25.706Z,95166.44
2023-01-29T09:50:05.857Z,95160.59
2023-01-29T09:52:41.130Z,95159.66
2023-01-29T09:55:20.318Z,95153.38
2023-01-29T09:57:54.028Z,95155.78
2023-01-29T10:00:25.719Z,95152.66
2023-01-29T10:03:31.025Z,95151.13
2023-01-29T10:06:00.669Z,95154.06
2023-01-29T10:08:27.247Z,95148.84
2023-01-29T10:11:27.437Z,95150.47
2023-01-29T10:14:23.523Z,95141.50
2023-01-29T10:17:20.574Z,95134.25
2023-01-29T10:19:56.501Z,95132.94
2023-01-29T10:22:45.787Z,95127.69
2023-01-29T10:25:19.113Z,95112.09
2023-01-29T10:27:53.289Z,95116.91
2023-01-29T10:30:38.509Z,95107.50
2023-01-29T10:33:11.156Z,95110.47
2023-01-29T10:35:43.565Z,95117.81
2023-01-29T10:38:24.346Z,95110.97
2023-01-29T10:41:10.562Z,95105.53
2023-01-29T10:43:58.950Z,95102.41
2023-01-29T10:47:01.111Z,95105.06
2023-01-29T10:49:42.747Z,95101.25
2023-01-29T10:52:44.390Z,95098.28
2023-01-29T10:55:20.319Z,95098.19
2023-01-29T10:58:05.829Z,95102.50
2023-01-29T11:00:39.239Z,95106.06
2023-01-29T11:03:26.910Z,95092.97
2023-01-29T11:06:21.327Z,95095.72
2023-01-29T11:09:06.394Z,95102.72
2023-01-29T11:11:57.659Z,95088.16
2023-01-29T11:14:33.004Z,95089.38
2023-01-29T11:16:59.686Z,95078.22
2023-01-29T11:19:41.111Z,95073.69
2023-01-29T11:22:20.079Z,95066.56
2023-01-29T11:25:06.821Z,95069.28
2023-01-29T11:27:35.608Z,95067.75
2023-01-29T11:30:02.833Z,95066.72
2023-01-29T11:32:34.020Z,95069.91
2023-01-29T11:35:00.605Z,95071.13
2023-01-29T11:37:40.532Z,95068.88
2023-01-29T11:40:19.582Z,95080.56
2023-01-29T11:42:47.377Z,95074.94
2023-01-29T11:45:38.713Z,95068.38
2023-01-29T11:48:05.553Z,95058.16
2023-01-29T11:50:33.718Z,95066.63
2023-01-29T11:53:01.412Z,95058.16
2023-01-29T11:55:49.694Z,95055.19
2023-01-29T11:58:22.276Z,95060.41
2023-01-29T12:00:52.505Z,95056.34
2023-01-29T12:03:32.001Z,95045.31
2023-01-29T12:06:03.214Z,95027.31
2023-01-29T12:08:37.018Z,95034.31
2023-01-29T12:11:23.751Z,95034.97
2023-01-29T12:13:54.928Z,95021.28
2023-01-29T12:16:34.129Z,95031.53
2023-01-29T12:19:12.813Z,95026.50
2023-01-29T12:21:49.529Z,95015.69
2023-01-29T12:24:42.297Z,95012.22
2023-01-29T12:27:19.490Z,95003.00
2023-01-29T12:29:52.843Z,94997.69
2023-01-29T12:32:35.746Z,94978.06
2023-01-29T12:35:57.540Z,94982.69
2023-01-29T12:38:24.415Z,94978.75
2023-01-29T12:40:59.845Z,94967.81
2023-01-29T12:44:13.527Z,94974.03
2023-01-29T12:46:45.526Z,94962.75
2023-01-29T12:49:17.528Z,94955.41
2023-01-29T12:52:02.616Z,94950.38
2023-01-29T12:54:39.940Z,94951.06
2023-01-29T12:57:56.088Z,94943.41
2023-01-29T13:00:29.325Z,94933.13
2023-01-29T13:03:10.722Z,94932.38
2023-01-29T13:05:48.282Z,94929.81
2023-01-29T13:08:20.796Z,94930.06
2023-01-29T13:10:51.220Z,94929.13
2023-01-29T13:13:24.641Z,94927.03
2023-01-29T13:15:53.504Z,94928.28
2023-01-29T13:18:38.451Z,94924.19
2023-01-29T13:21:05.817Z,94926.28
2023-01-29T13:23:37.990Z,94921.19
2023-01-29T13:26:05.789Z,94924.25
2023-01-29T13:28:32.899Z,94915.25
2023-01-29T13:31:11.842Z,94917.06
2023-01-29T13:33:40.899Z,94926.28
2023-01-29T13:36:16.100Z,94915.63
2023-01-29T13:38:45.241Z,94922.13
2023-01-29T13:41:12.330Z,94918.75
2023-01-29T13:43:43.486Z,94922.81
2023-01-29T13:46:13.943Z,94909.09
2023-01-29T13:48:48.241Z,94911.25
2023-01-29T13:51:20.309Z,94908.91
2023-01-29T13:54:09.471Z,94914.13
2023-01-29T13:56:47.848Z,94912.59
2023-01-29T13:59:54.056Z,94911.19
2023-01-29T14:02:24.381Z,94911.34
2023-01-29T14:04:51.203Z,94919.00
2023-01-29T14:07:45.896Z,94918.75
2023-01-29T14:10:21.548Z,94924.78
2023-01-29T14:12:53.410Z,94931.88
2023-01-29T14:15:24.573Z,94925.06
2023-01-29T14:18:16.372Z,94926.00
2023-01-29T14:20:52.196Z,94915.31
2023-01-29T14:23:35.851Z,94919.44
2023-01-29T14:26:06.091Z,94917.28
2023-01-29T14:28:34.936Z,94921.69
2023-01-29T14:31:03.857Z,94917.72
2023-01-29T14:33:49.226Z,94918.94
2023-01-29T14:36:16.360Z,94916.00
2023-01-29T14:38:51.926Z,94930.28
2023-01-29T14:41:35.972Z,94934.03
2023-01-29T14:44:40.428Z,94921.34
2023-01-29T14:47:18.382Z,94925.31
2023-01-29T14:49:52.368Z,94918.69
2023-01-29T14:52:26.409Z,94918.63
2023-01-29T14:54:57.466Z,94924.69
2023-01-29T14:57:25.032Z,94919.66
2023-01-29T15:00:05.443Z,94916.47
2023-01-29T15:02:41.657Z,94923.88
2023-01-29T15:05:14.231Z,94926.94
2023-01-29T15:07:48.771Z,94922.41
2023-01-29T15:10:35.791Z,94921.63
2023-01-29T15:13:09.342Z,94920.56
2023-01-29T15:15:51.307Z,94926.88
2023-01-29T15:18:32.711Z,94934.75
2023-01-29T15:21:13.933Z,94934.16
2023-01-29T15:23:44.231Z,94928.63
2023-01-29T15:26:26.972Z,94927.34
2023-01-29T15:29:04.678Z,94933.94
2023-01-29T15:31:32.604Z,94931.59
2023-01-29T15:34:06.426Z,94926.81
2023-01-29T15:36:33.479Z,94924.88
2023-01-29T15:39:28.383Z,94921.38
2023-01-29T15:42:12.620Z,94912.28
2023-01-29T15:44:45.672Z,94904.72
2023-01-29T15:47:14.269Z,94907.78
2023-01-29T15:49:41.535Z,94901.97
2023-01-29T15:52:16.409Z,94893.75
2023-01-29T15:54:44.101Z,94896.69
2023-01-29T15:57:34.448Z,94896.69
2023-01-29T16:00:01.805Z,94890.63
2023-01-29T16:02:39.067Z,94896.47
2023-01-29T16:05:11.535Z,94891.38
2023-01-29T16:07:38.120Z,94897.66
2023-01-29T16:10:06.165Z,94893.44
2023-01-29T16:12:34.566Z,94895.28
2023-01-29T16:15:03.767Z,94891.28
2023-01-29T16:17:35.384Z,94895.97
2023-01-29T16:20:05.921Z,94900.28
2023-01-29T16:22:37.614Z,94901.56
2023-01-29T16:25:07.780Z,94910.34
2023-01-29T16:27:35.125Z,94907.78
2023-01-29T16:30:02.268Z,94908.56
2023-01-29T16:32:30.541Z,94907.53
2023-01-29T16:35:00.552Z,94902.81
2023-01-29T16:37:30.638Z,94903.09
2023-01-29T16:39:57.659Z,94906.25
2023-01-29T16:42:27.031Z,94898.19
2023-01-29T16:45:06.494Z,94905.53
2023-01-29T16:47:38.699Z,94905.31
2023-01-29T16:50:17.639Z,94901.63
2023-01-29T16:53:06.787Z,94904.03
2023-01-29T16:55:38.874Z,94904.34
2023-01-29T16:58:15.183Z,94899.78
2023-01-29T17:00:48.640Z,94911.06
2023-01-29T17:03:17.344Z,94918.06
2023-01-29T17:05:45.525Z,94916.25
2023-01-29T17:08:25.758Z,94913.06
2023-01-29T17:10:53.188Z,94917.53
2023-01-29T17:13:31.598Z,94921.69
2023-01-29T17:16:03.661Z,94920.50
2023-01-29T17:18:30.620Z,94926.00
2023-01-29T17:20:57.337Z,94924.06
2023-01-29T17:23:23.990Z,94924.25
2023-01-29T17:25:51.805Z,94926.50
2023-01-29T17:28:18.801Z,94931.91
2023-01-29T17:30:56.576Z,94931.03
2023-01-29T17:33:27.195Z,94931.75
2023-01-29T17:35:53.994Z,94926.00
2023-01-29T17:38:26.226Z,94928.88
2023-01-29T17:41:18.080Z,94937.09
2023-01-29T17:43:44.983Z,94926.81
2023-01-29T17:46:16.630Z,94939.72
2023-01-29T17:48:44.190Z,94937.66
2023-01-29T17:51:15.873Z,94925.69
2023-01-29T17:53:46.173Z,94927.91
2023-01-29T17:56:28.050Z,94924.09
2023-01-29T17:58:54.749Z,94921.81
2023-01-29T18:01:21.387Z,94913.53
2023-01-29T18:03:48.167Z,94921.16
2023-01-29T18:06:33.107Z,94924.28
2023-01-29T18:08:59.821Z,94916.31
2023-01-29T18:11:26.730Z,94915.41
2023-01-29T18:13:53.414Z,94917.16
2023-01-29T18:16:22.126Z,94912.34
2023-01-29T18:18:50.038Z,94913.88
2023-01-29T18:21:16.981Z,94914.69
2023-01-29T18:23:44.013Z,94906.94
2023-01-29T18:26:12.278Z,94906.72
2023-01-29T18:28:39.042Z,94918.03
2023-01-29T18:31:06.177Z,94914.84
2023-01-29T18:33:34.291Z,94909.59
2023-01-29T18:36:01.064Z,94911.91
2023-01-29T18:38:27.772Z,94909.84
2023-01-29T18:40:54.415Z,94906.88
2023-01-29T18:43:21.108Z,94913.28
2023-01-29T18:45:48.815Z,94907.38
2023-01-29T18:48:15.477Z,94910.22
2023-01-29T18:50:42.124Z,94916.03
2023-01-29T18:53:08.836Z,94910.78
2023-01-29T18:55:35.490Z,94911.59
2023-01-29T18:58:27.011Z,94912.06
2023-01-29T19:00:48.843Z,94914.94
2023-01-29T19:03:15.535Z,94914.16
2023-01-29T19:05:42.230Z,94898.28
2023-01-29T19:08:08.930Z,94906.63
2023-01-29T19:10:35.789Z,94903.09
2023-01-29T19:13:02.483Z,94905.59
2023-01-29T19:15:29.172Z,94906.88
2023-01-29T19:17:56.442Z,94911.88
2023-01-29T19:20:23.254Z,94910.63
2023-01-29T19:22:49.966Z,94903.69
2023-01-29T19:25:17.714Z,94905.28
2023-01-29T19:27:45.185Z,94920.31
2023-01-29T19:30:13.076Z,94913.72
2023-01-29T19:32:40.966Z,94912.94
2023-01-29T19:35:07.914Z,94906.09
2023-01-29T19:37:34.573Z,94906.63
2023-01-29T19:40:01.191Z,94907.19
2023-01-29T19:42:28.149Z,94908.56
2023-01-29T19:44:54.873Z,94899.88
2023-01-29T19:47:21.584Z,94908.00
2023-01-29T19:49:48.407Z,94904.81
2023-01-29T19:52:41.417Z,94910.06
2023-01-29T19:55:16.764Z,94914.75
2023-01-29T19:57:43.601Z,94912.94
2023-01-29T20:00:12.100Z,94916.25
2023-01-29T20:02:38.815Z,94913.84
2023-01-29T20:05:07.967Z,94911.91
2023-01-29T20:07:36.000Z,94918.41
2023-01-29T20:10:02.786Z,94917.28
2023-01-29T20:12:29.936Z,94918.53
2023-01-29T20:14:56.675Z,94909.78
2023-01-29T20:17:23.325Z,94917.53
2023-01-29T20:19:49.972Z,94911.47
2023-01-29T20:22:16.639Z,94912.06
2023-01-29T20:24:43.456Z,94908.63
2023-01-29T20:27:10.820Z,94908.28
2023-01-29T20:29:39.049Z,94908.97
2023-01-29T20:32:08.855Z,94900.41
2023-01-29T20:34:36.250Z,94897.09
2023-01-29T20:37:03.253Z,94909.41
2023-01-29T20:39:30.139Z,94906.25
2023-01-29T20:41:57.350Z,94897.09
2023-01-29T20:44:24.903Z,94896.06
2023-01-29T20:46:51.985Z,94885.81
2023-01-29T20:49:19.317Z,94877.50
2023-01-29T20:51:46.457Z,94873.50
2023-01-29T20:54:13.279Z,94871.56
2023-01-29T20:56:42.653Z,94879.44
2023-01-29T20:59:10.434Z,94872.38
2023-01-29T21:01:37.073Z,94872.25
2023-01-29T21:04:03.896Z,94876.47
2023-01-29T21:06:30.902Z,94869.41
2023-01-29T21:08:57.634Z,94863.38
2023-01-29T21:11:24.281Z,94864.63
2023-01-29T21:13:54.400Z,94854.69
2023-01-29T21:16:21.299Z,94849.69
2023-01-29T21:18:48.013Z,94840.22
2023-01-29T21:21:14.787Z,94844.09
2023-01-29T21:23:41.494Z,94839.63
2023-01-29T21:26:08.738Z,94836.00
2023-01-29T21:28:35.505Z,94838.84
2023-01-29T21:31:07.803Z,94837.00
2023-01-29T21:33:35.054Z,94832.78
2023-01-29T21:36:02.382Z,94829.59
2023-01-29T21:38:29.107Z,94831.00
2023-01-29T21:41:01.163Z,94834.88
2023-01-29T21:43:27.844Z,94837.59
2023-01-29T21:45:59.447Z,94829.28
2023-01-29T21:48:26.881Z,94838.75
2023-01-29T21:50:53.521Z,94833.50
2023-01-29T21:53:20.683Z,94835.53
2023-01-29T21:55:47.720Z,94838.41
2023-01-29T21:58:14.900Z,94831.31
2023-01-29T22:00:41.844Z,94837.72
2023-01-29T22:03:08.747Z,94830.19
2023-01-29T22:05:35.680Z,94837.47
2023-01-29T22:08:04.838Z,94828.00
2023-01-29T22:10:33.986Z,94825.16
2023-01-29T22:13:02.036Z,94823.44
2023-01-29T22:15:28.741Z,94833.63
2023-01-29T22:17:55.400Z,94828.59
2023-01-29T22:20:29.791Z,94831.78
2023-01-29T22:22:59.050Z,94827.81
2023-01-29T22:25:25.961Z,94826.56
2023-01-29T22:27:52.686Z,94826.22
2023-01-29T22:30:19.668Z,94827.34
2023-01-29T22:32:46.460Z,94821.75
2023-01-29T22:35:13.178Z,94810.81
2023-01-29T22:37:39.971Z,94807.63
2023-01-29T22:40:07.257Z,94800.22
2023-01-29T22:42:33.884Z,94795.19
2023-01-29T22:45:00.508Z,94786.06
2023-01-29T22:47:27.138Z,94787.91
2023-01-29T22:49:53.902Z,94794.16
2023-01-29T22:52:21.921Z,94795.44
2023-01-29T22:54:48.653Z,94796.34
2023-01-29T22:57:15.357Z,94789.72
2023-01-29T22:59:42.021Z,94787.31
2023-01-29T23:02:09.309Z,94780.75
2023-01-29T23:04:36.493Z,94781.28
2023-01-29T23:07:04.110Z,94784.38
2023-01-29T23:09:31.379Z,94785.06
2023-01-29T23:11:58.019Z,94775.16
2023-01-29T23:14:24.666Z,94774.94
2023-01-29T23:16:51.287Z,94778.34
2023-01-29T23:19:17.986Z,94775.16
2023-01-29T23:21:44.711Z,94764.91
2023-01-29T23:24:11.713Z,94753.28
2023-01-29T23:26:57.128Z,94758.63
2023-01-29T23:29:23.842Z,94740.41
2023-01-29T23:31:50.842Z,94728.56
2023-01-29T23:34:17.688Z,94717.63
2023-01-29T23:36:44.713Z,94725.56
2023-01-29T23:39:11.759Z,94716.47
2023-01-29T23:41:38.407Z,94714.31
2023-01-29T23:44:05.455Z,94705.41
2023-01-29T23:46:32.417Z,94690.50
2023-01-29T23:48:59.365Z,94683.22
2023-01-29T23:51:26.512Z,94679.81
2023-01-29T23:53:53.471Z,94677.97
2023-01-29T23:56:20.373Z,94676.50
2023-01-29T23:58:47.183Z,94681.06
